Time;durP1;ratioP1;P1;durP2;ratioP2;P2;SDS_P1;SDS_P2;PMS_P1;PMS_P2;Temp;Humidity;BMP_temperature;BMP_pressure;BME280_temperature;BME280_humidity;BME280_pressure;Samples;Min_cycle;Max_cycle;Signal;HPM_P1;HPM_P2
2021/12/22 17:21:39;;;;;;;27.58;11.20;;;;;;;-1.05;100.00;100216.05;4596356;77;83148;-81
2021/12/22 17:27:46;;;;;;;25.88;11.22;;;;;;;-1.08;100.00;100203.93;4534167;77;42862;-90
2021/12/22 17:33:49;;;;;;;27.25;11.55;;;;;;;-1.28;100.00;100200.30;4548732;77;43435;-89
2021/12/22 17:39:56;;;;;;;30.88;12.68;;;;;;;-1.24;100.00;100213.59;4566819;77;43430;-92
2021/12/22 17:45:58;;;;;;;28.50;12.37;;;;;;;-1.13;100.00;100198.20;4556601;77;43379;-88
2021/12/22 17:52:02;;;;;;;31.02;12.95;;;;;;;-1.23;100.00;100200.75;4543036;78;43437;-88
2021/12/22 17:58:12;;;;;;;29.63;13.93;;;;;;;-1.31;100.00;100197.42;4558587;78;43438;-86
2021/12/22 18:04:14;;;;;;;34.25;14.53;;;;;;;-1.39;100.00;100198.52;4557514;78;44424;-81
2021/12/22 18:10:16;;;;;;;35.00;14.45;;;;;;;-1.60;100.00;100187.92;4541064;78;44124;-86
2021/12/22 18:16:17;;;;;;;31.52;14.07;;;;;;;-1.55;100.00;100189.23;4541462;78;44089;-84
2021/12/22 18:22:19;;;;;;;35.15;14.63;;;;;;;-1.78;100.00;100192.85;4503065;78;44085;-84
2021/12/22 18:28:20;;;;;;;32.23;14.15;;;;;;;-1.69;100.00;100186.84;4504010;78;44062;-88
2021/12/22 18:34:25;;;;;;;34.63;14.38;;;;;;;-1.65;100.00;100188.77;4505543;77;44140;-80
2021/12/22 18:40:45;;;;;;;42.17;18.23;;;;;;;-1.58;100.00;100183.36;4474387;78;42876;-80
2021/12/22 18:46:33;;;;;;;39.18;16.90;;;;;;;-1.74;100.00;100185.89;4501527;79;44500;-78
2021/12/22 18:52:34;;;;;;;39.05;16.97;;;;;;;-1.53;100.00;100186.95;4505089;79;44413;-84
2021/12/22 18:58:36;;;;;;;41.65;17.95;;;;;;;-1.52;100.00;100182.02;4508018;79;44495;-85
2021/12/22 19:04:37;;;;;;;42.35;17.15;;;;;;;-1.63;100.00;100185.05;4522767;77;44472;-77
2021/12/22 19:10:39;;;;;;;42.98;17.40;;;;;;;-1.41;100.00;100178.03;4491344;77;43683;-83
2021/12/22 19:16:40;;;;;;;42.55;17.65;;;;;;;-1.26;100.00;100171.48;4483952;78;43200;-84
2021/12/22 19:22:42;;;;;;;43.52;17.75;;;;;;;-1.30;100.00;100175.81;4540224;77;43278;-86
2021/12/22 19:28:43;;;;;;;45.10;17.87;;;;;;;-1.06;100.00;100165.04;4567766;77;43736;-84
2021/12/22 19:34:45;;;;;;;43.92;18.30;;;;;;;-1.09;100.00;100163.98;4554228;77;43776;-81
2021/12/22 19:40:49;;;;;;;42.98;18.52;;;;;;;-1.09;100.00;100160.49;4563990;76;43721;-83
2021/12/22 19:46:51;;;;;;;42.75;18.67;;;;;;;-0.99;100.00;100158.77;4501432;78;28470;-84
2021/12/22 19:52:54;;;;;;;42.35;18.05;;;;;;;-0.96;100.00;100152.39;4553791;77;43391;-80
2021/12/22 19:58:55;;;;;;;41.20;18.77;;;;;;;-0.98;100.00;100148.58;4552025;77;43712;-79
2021/12/22 20:04:56;;;;;;;45.05;18.40;;;;;;;-0.99;100.00;100152.16;4551968;77;43741;-80
2021/12/22 20:10:59;;;;;;;38.63;17.92;;;;;;;-0.99;100.00;100150.84;4551856;77;44404;-83
2021/12/22 20:17:01;;;;;;;45.15;20.05;;;;;;;-0.95;100.00;100154.06;4543441;77;43755;-82
2021/12/22 20:23:04;;;;;;;44.58;19.92;;;;;;;-0.99;100.00;100146.88;4508411;77;43769;-81
2021/12/22 20:29:05;;;;;;;49.42;21.17;;;;;;;-1.16;100.00;100145.66;4515545;77;44483;-80
2021/12/22 20:35:07;;;;;;;54.70;22.45;;;;;;;-1.23;100.00;100137.41;4531864;77;44160;-81
2021/12/22 20:41:09;;;;;;;60.55;24.10;;;;;;;-1.27;100.00;100134.19;4507743;77;43663;-79
2021/12/22 20:47:11;;;;;;;61.10;25.52;;;;;;;-1.25;100.00;100126.16;4506795;77;42072;-82
2021/12/22 20:53:12;;;;;;;62.98;26.70;;;;;;;-1.27;100.00;100131.55;4520593;77;43349;-82
2021/12/22 20:59:18;;;;;;;73.25;27.13;;;;;;;-1.30;100.00;100123.05;4522977;77;43975;-78
2021/12/22 21:05:17;;;;;;;60.60;25.43;;;;;;;-1.37;100.00;100117.94;4501038;77;43364;-78
2021/12/22 21:11:20;;;;;;;59.23;25.68;;;;;;;-1.35;100.00;100116.00;4508470;77;42465;-79
2021/12/22 21:17:21;;;;;;;63.15;26.60;;;;;;;-1.24;100.00;100111.98;4497472;77;43206;-79
2021/12/22 21:23:23;;;;;;;61.63;24.82;;;;;;;-1.35;100.00;100103.66;4498214;77;43183;-79
2021/12/22 21:29:24;;;;;;;61.98;26.10;;;;;;;-1.33;100.00;100092.50;4501446;77;43030;-77
2021/12/22 21:35:27;;;;;;;64.10;25.95;;;;;;;-1.41;100.00;100097.56;4493516;77;42863;-79
2021/12/22 21:41:28;;;;;;;66.25;25.12;;;;;;;-1.70;100.00;100099.47;4491616;77;43735;-78
2021/12/22 21:47:30;;;;;;;63.83;26.82;;;;;;;-1.61;100.00;100092.63;4489679;77;43344;-79
2021/12/22 21:53:31;;;;;;;64.92;25.50;;;;;;;-1.66;100.00;100093.00;4510604;77;43344;-79
2021/12/22 21:59:33;;;;;;;62.30;25.55;;;;;;;-1.60;100.00;100086.39;4489603;77;43262;-78
2021/12/22 22:05:35;;;;;;;59.70;24.82;;;;;;;-1.64;100.00;100083.16;4504436;77;44056;-79
2021/12/22 22:11:38;;;;;;;57.13;24.57;;;;;;;-1.65;100.00;100080.64;4493119;77;44150;-79
2021/12/22 22:17:41;;;;;;;52.95;23.40;;;;;;;-1.60;100.00;100074.52;4509473;77;44077;-78
2021/12/22 22:23:42;;;;;;;59.15;25.05;;;;;;;-1.75;100.00;100059.47;4487312;77;44112;-81
2021/12/22 22:29:46;;;;;;;55.78;23.98;;;;;;;-1.70;100.00;100060.77;4492602;77;44113;-79
2021/12/22 22:35:49;;;;;;;59.00;23.42;;;;;;;-1.89;100.00;100056.64;4501386;77;28487;-81
2021/12/22 22:41:50;;;;;;;60.33;24.27;;;;;;;-1.79;100.00;100050.97;4502908;77;44267;-78
2021/12/22 22:47:53;;;;;;;56.30;24.15;;;;;;;-1.80;100.00;100054.58;4502844;77;44125;-79
2021/12/22 22:53:54;;;;;;;58.33;23.57;;;;;;;-1.80;100.00;100048.45;4500711;77;44054;-79
2021/12/22 22:59:55;;;;;;;53.65;22.77;;;;;;;-1.80;100.00;100049.77;4485565;77;44066;-79
2021/12/22 23:05:56;;;;;;;61.20;23.40;;;;;;;-1.92;100.00;100042.41;4499015;77;43652;-79
2021/12/22 23:11:58;;;;;;;57.55;23.65;;;;;;;-1.93;100.00;100039.38;4495347;77;44127;-78
2021/12/22 23:18:08;;;;;;;55.80;23.07;;;;;;;-1.68;100.00;100031.61;4492621;77;44168;-80
2021/12/22 23:24:07;;;;;;;56.80;22.40;;;;;;;-1.51;100.00;100026.28;4498129;77;44489;-77
2021/12/22 23:30:09;;;;;;;57.83;23.42;;;;;;;-1.44;100.00;100015.55;4497958;77;44113;-79
2021/12/22 23:36:20;;;;;;;54.42;22.45;;;;;;;-1.58;100.00;100017.20;4493982;77;44172;-75
2021/12/22 23:42:56;;;;;;;52.85;21.80;;;;;;;-1.85;100.00;100007.50;4490462;77;44508;-77
2021/12/22 23:54:58;;;;;;;52.67;22.55;;;;;;;-1.89;100.00;99984.16;4498583;77;44109;-78
